Aviation Digital Data Service (ADDS)

Output produced by METARs form (0108 UTC 05 September 2015)
found at http://aviationweather.gov/adds/metars/
 
KCDW 050053Z 17004KT 10SM CLR 24/18 A3017 RMK AO2 SLP220 T02440183
KMMU 050045Z 00000KT 10SM SKC 24/20 A3017
KFWN 050053Z AUTO 00000KT 7SM CLR 21/19 A3018 RMK AO2 SLP216 T02110189
KTEB 050051Z 12005KT 10SM CLR 26/17 A3015 RMK AO2 SLP209 FU 1SM S AP T02560172
KTEB 042334Z 0500/0524 08008KT P6SM FEW040 SCT080 
     FM050600 04004KT P6SM FEW050 
     FM051500 08008KT P6SM FEW250 
     FM051900 12007KT P6SM FEW250
       
KEWR 050051Z 11010G18KT 10SM FEW032 24/17 A3016 RMK AO2 SLP213 T02390167 $
KEWR 042334Z 0500/0606 13009KT P6SM FEW040 SCT080 
     FM050200 08008KT P6SM FEW040 
     FM050900 04008KT P6SM FEW050 
     FM051900 13009KT P6SM FEW250 
     FM060000 12006KT P6SM SKC
       
KDXR 050053Z 00000KT 10SM CLR 22/16 A3021 RMK AO2 SLP225 T02170161
KHPN 050056Z 06003KT 10SM CLR 22/17 A3018 RMK AO2 SLP215 T02220172
KHPN 042334Z 0500/0524 09008KT P6SM FEW040 
     FM050600 04004KT P6SM FEW050 
     FM051400 08008KT P6SM FEW250 
     FM051900 12006KT P6SM FEW250 AMD NOT SKED
       
KABE 050051Z 10006KT 6SM HZ FEW029 25/19 A3015 RMK AO2 SLP209 T02500194
KABE 042343Z 0500/0524 07008KT P6SM SCT030 BKN050 
     FM050300 09005KT P6SM BKN030 
     FM050700 06004KT 4SM BR FEW009 BKN015 
     TEMPO 0510/0512 BKN009 
     FM051300 07007KT P6SM SCT025 BKN050
       
KAVP 050054Z AUTO 07003KT 8SM SCT049 24/19 A3017 RMK AO2 SLP208 T02390194
KAVP 042323Z 0500/0524 10003KT P6SM SCT040 
     FM050300 10003KT P6SM BKN025 
     FM050600 10003KT 3SM BR OVC012 
     TEMPO 0508/0512 2SM BR OVC007 
     FM051400 VRB04KT P6SM BKN045 
     FM051900 25006KT P6SM SCT050
       
KSWF 042345Z 09008KT 10SM SCT030 25/19 A3017
KSWF 042334Z 0500/0606 09008KT P6SM SCT030 
     FM050300 VRB05KT P6SM FEW035 
     FM051500 09005KT P6SM SCT250 
     FM051900 14005KT P6SM FEW250 
     FM060000 VRB03KT P6SM SKC AMD NOT SKED
       
KMSV 050055Z AUTO 00000KT 8SM BKN038 OVC075 20/19 A3023 RMK AO1
KPOU 050053Z AUTO 10005KT 10SM CLR 23/17 A3016 RMK AO2 SLP210 T02330172
KPOU 042334Z 0500/0524 04004KT P6SM SKC 
     FM050100 VRB02KT P6SM SKC 
     FM051300 07006KT P6SM SKC
       
KACY 050054Z 06011KT 9SM OVC028 24/20 A3013 RMK AO2 SLP201 T02390200
KACY 042343Z 0500/0524 07014KT P6SM BKN025 
     FM050200 05010KT P6SM OVC010 
     TEMPO 0509/0511 4SM BR BKN009 
     FM051400 07012G20KT P6SM BKN020
       
KGON 050056Z 06007KT 10SM BKN070 21/16 A3021 RMK AO2 SLP229 T02060161
KGON 042334Z 0500/0524 07010KT P6SM FEW040 
     FM050800 04008KT P6SM FEW050 
     FM051600 14010KT P6SM FEW250